createdAt,value
2023-01-22T00:01:18.202Z,28.90
2023-01-22T00:03:47.192Z,21.80
2023-01-22T00:06:15.658Z,24.20
2023-01-22T00:08:43.467Z,29.00
2023-01-22T00:11:11.569Z,28.00
2023-01-22T00:13:39.196Z,27.70
2023-01-22T00:16:07.541Z,31.40
2023-01-22T00:18:35.157Z,30.70
2023-01-22T00:21:02.614Z,32.00
2023-01-22T00:23:29.932Z,29.40
2023-01-22T00:26:12.637Z,31.40
2023-01-22T00:28:41.756Z,35.80
2023-01-22T00:31:11.477Z,32.60
2023-01-22T00:33:40.094Z,31.50
2023-01-22T00:36:15.489Z,28.60
2023-01-22T00:38:43.196Z,30.30
2023-01-22T00:41:11.572Z,28.50
2023-01-22T00:43:40.515Z,28.10
2023-01-22T00:46:11.700Z,31.80
2023-01-22T00:48:39.843Z,28.50
2023-01-22T00:51:08.847Z,28.70
2023-01-22T00:53:37.306Z,31.60
2023-01-22T00:56:05.440Z,30.90
2023-01-22T00:58:32.930Z,29.90
2023-01-22T01:01:03.659Z,29.30
2023-01-22T01:03:32.068Z,28.40
2023-01-22T01:06:04.525Z,30.30
2023-01-22T01:08:36.693Z,27.40
2023-01-22T01:11:08.195Z,24.50
2023-01-22T01:16:11.593Z,28.50
2023-01-22T01:18:39.187Z,30.10
2023-01-22T01:21:07.549Z,29.10
2023-01-22T01:23:36.564Z,31.00
2023-01-22T01:26:09.390Z,29.40
2023-01-22T01:28:38.580Z,33.70
2023-01-22T01:31:10.247Z,28.90
2023-01-22T01:33:38.299Z,33.60
2023-01-22T01:36:11.047Z,32.70
2023-01-22T01:38:38.679Z,29.10
2023-01-22T01:41:07.641Z,31.50
2023-01-22T01:43:35.460Z,32.20
2023-01-22T01:46:05.355Z,31.50
2023-01-22T01:48:39.420Z,31.10
2023-01-22T01:51:15.897Z,31.90
2023-01-22T01:53:46.642Z,33.10
2023-01-22T01:56:19.828Z,31.70
2023-01-22T01:58:51.509Z,33.00
2023-01-22T02:01:20.299Z,31.00
2023-01-22T02:03:48.074Z,31.80
2023-01-22T02:06:18.607Z,30.70
2023-01-22T02:08:49.533Z,31.40
2023-01-22T02:11:19.350Z,34.40
2023-01-22T02:13:54.911Z,33.40
2023-01-22T02:16:22.388Z,33.90
2023-01-22T02:18:49.873Z,32.50
2023-01-22T02:21:40.514Z,30.60
2023-01-22T02:24:15.297Z,36.20
2023-01-22T02:26:45.756Z,31.50
2023-01-22T02:29:14.863Z,34.80
2023-01-22T02:31:43.073Z,34.90
2023-01-22T02:34:11.232Z,37.20
2023-01-22T02:36:39.849Z,33.20
2023-01-22T02:39:07.455Z,33.20
2023-01-22T02:41:34.864Z,34.30
2023-01-22T02:44:02.225Z,34.40
2023-01-22T02:46:30.675Z,32.80
2023-01-22T02:48:58.301Z,32.70
2023-01-22T02:51:26.699Z,34.50
2023-01-22T02:53:54.224Z,32.00
2023-01-22T02:56:22.256Z,36.70
2023-01-22T02:58:50.104Z,35.80
2023-01-22T03:01:24.583Z,35.30
2023-01-22T03:04:11.045Z,34.10
2023-01-22T03:06:45.739Z,34.10
2023-01-22T03:09:16.408Z,33.80
2023-01-22T03:11:46.597Z,35.70
2023-01-22T03:14:32.922Z,38.90
2023-01-22T03:17:19.791Z,36.60
2023-01-22T03:20:05.918Z,36.10
2023-01-22T03:22:33.453Z,35.40
2023-01-22T03:25:01.518Z,32.90
2023-01-22T03:27:31.588Z,34.30
2023-01-22T03:29:59.294Z,36.50
2023-01-22T03:32:26.767Z,36.50
2023-01-22T03:34:54.258Z,37.60
2023-01-22T03:37:21.722Z,35.90
2023-01-22T03:39:49.110Z,33.60
2023-01-22T03:42:16.509Z,36.20
2023-01-22T03:44:44.112Z,30.90
2023-01-22T03:47:11.590Z,33.90
2023-01-22T03:49:39.039Z,35.10
2023-01-22T03:52:06.482Z,34.70
2023-01-22T03:54:34.260Z,34.80
2023-01-22T03:57:01.704Z,33.00
2023-01-22T03:59:29.096Z,35.70
2023-01-22T04:01:56.442Z,34.90
2023-01-22T04:04:23.949Z,32.70
2023-01-22T04:06:51.328Z,31.10
2023-01-22T04:09:18.901Z,32.70
2023-01-22T04:11:46.522Z,32.70
2023-01-22T04:14:13.925Z,29.90
2023-01-22T04:16:41.321Z,29.40
2023-01-22T04:19:10.367Z,28.70
2023-01-22T04:21:37.819Z,32.30
2023-01-22T04:24:06.071Z,38.40
2023-01-22T04:26:33.551Z,30.10
2023-01-22T04:29:01.043Z,29.80
2023-01-22T04:31:28.694Z,28.30
2023-01-22T04:33:56.342Z,26.50
2023-01-22T04:36:23.797Z,26.60
2023-01-22T04:38:51.317Z,29.50
2023-01-22T04:41:18.695Z,29.00
2023-01-22T04:43:46.067Z,29.70
2023-01-22T04:46:13.496Z,30.10
2023-01-22T04:48:40.920Z,30.20
2023-01-22T04:51:08.573Z,26.30
2023-01-22T04:53:35.986Z,25.50
2023-01-22T04:56:04.259Z,28.90
2023-01-22T04:58:31.636Z,26.40
2023-01-22T05:00:59.084Z,30.60
2023-01-22T05:03:26.598Z,27.20
2023-01-22T05:05:53.961Z,27.40
2023-01-22T05:08:21.338Z,24.70
2023-01-22T05:10:48.748Z,26.00
2023-01-22T05:13:16.115Z,24.50
2023-01-22T05:15:43.616Z,25.00
2023-01-22T05:18:11.082Z,22.50
2023-01-22T05:20:38.491Z,28.00
2023-01-22T05:23:05.867Z,30.60
2023-01-22T05:25:33.254Z,25.30
2023-01-22T05:28:00.653Z,26.10
2023-01-22T05:30:28.167Z,29.30
2023-01-22T05:32:57.660Z,27.00
2023-01-22T05:35:25.218Z,26.10
2023-01-22T05:37:52.658Z,27.50
2023-01-22T05:40:20.444Z,30.30
2023-01-22T05:42:48.015Z,25.90
2023-01-22T05:45:15.515Z,27.60
2023-01-22T05:47:42.871Z,25.40
2023-01-22T05:50:11.033Z,27.90
2023-01-22T05:52:38.446Z,27.90
2023-01-22T05:55:06.638Z,30.40
2023-01-22T05:57:35.657Z,30.80
2023-01-22T06:00:05.454Z,28.90
2023-01-22T06:02:32.939Z,31.60
2023-01-22T06:05:00.471Z,31.00
2023-01-22T06:07:30.702Z,28.50
2023-01-22T06:09:58.106Z,28.90
2023-01-22T06:12:25.532Z,26.60
2023-01-22T06:14:55.762Z,26.80
2023-01-22T06:17:23.608Z,26.50
2023-01-22T06:19:51.073Z,26.00
2023-01-22T06:22:19.256Z,26.90
2023-01-22T06:24:46.727Z,27.60
2023-01-22T06:27:14.287Z,28.10
2023-01-22T06:29:41.716Z,31.20
2023-01-22T06:32:09.312Z,29.10
2023-01-22T06:34:38.658Z,25.40
2023-01-22T06:37:06.413Z,29.10
2023-01-22T06:39:33.813Z,29.20
2023-01-22T06:42:01.266Z,30.60
2023-01-22T06:44:28.838Z,27.00
2023-01-22T06:46:56.199Z,28.30
2023-01-22T06:49:23.673Z,30.30
2023-01-22T06:51:51.101Z,30.70
2023-01-22T06:54:18.597Z,30.30
2023-01-22T06:56:46.073Z,35.60
2023-01-22T06:59:13.495Z,31.60
2023-01-22T07:01:42.306Z,31.50
2023-01-22T07:04:10.829Z,30.40
2023-01-22T07:06:38.178Z,28.90
2023-01-22T07:09:05.778Z,29.10
2023-01-22T07:11:33.318Z,31.90
2023-01-22T07:14:00.876Z,33.60
2023-01-22T07:16:28.403Z,30.30
2023-01-22T07:18:56.192Z,31.30
2023-01-22T07:21:23.760Z,27.40
2023-01-22T07:23:51.318Z,29.50
2023-01-22T07:26:18.819Z,32.20
2023-01-22T07:28:46.236Z,28.40
2023-01-22T07:31:14.517Z,32.20
2023-01-22T07:33:42.308Z,31.60
2023-01-22T07:36:10.180Z,28.70
2023-01-22T07:38:37.586Z,31.90
2023-01-22T07:41:14.115Z,32.40
2023-01-22T07:43:49.399Z,34.10
2023-01-22T07:46:17.286Z,29.60
2023-01-22T07:48:45.983Z,31.60
2023-01-22T07:51:13.695Z,29.10
2023-01-22T07:53:42.768Z,29.50
2023-01-22T07:56:10.411Z,29.70
2023-01-22T07:58:39.314Z,29.00
2023-01-22T08:01:07.725Z,29.90
2023-01-22T08:03:35.233Z,33.30
2023-01-22T08:06:08.746Z,30.40
2023-01-22T08:08:36.308Z,30.20
2023-01-22T08:11:04.606Z,31.70
2023-01-22T08:13:32.120Z,31.10
2023-01-22T08:15:59.566Z,29.70
2023-01-22T08:18:26.953Z,31.40
2023-01-22T08:20:54.640Z,32.90
2023-01-22T08:23:22.266Z,29.40
2023-01-22T08:25:49.672Z,29.10
2023-01-22T08:28:17.146Z,28.50
2023-01-22T08:30:46.680Z,29.80
2023-01-22T08:33:15.913Z,29.30
2023-01-22T08:35:43.448Z,30.80
2023-01-22T08:38:10.950Z,30.00
2023-01-22T08:40:38.309Z,27.30
2023-01-22T08:43:05.689Z,26.40
2023-01-22T08:45:33.723Z,28.40
2023-01-22T08:48:01.357Z,26.60
2023-01-22T08:50:29.785Z,27.70
2023-01-22T08:52:58.004Z,31.20
2023-01-22T08:55:27.730Z,28.20
2023-01-22T08:57:56.856Z,26.80
2023-01-22T09:00:25.577Z,27.30
2023-01-22T09:02:58.621Z,26.10
2023-01-22T09:05:27.725Z,25.40
2023-01-22T09:07:55.188Z,28.80
2023-01-22T09:10:22.919Z,30.70
2023-01-22T09:12:50.454Z,30.90
2023-01-22T09:15:18.121Z,24.10
2023-01-22T09:17:45.725Z,26.90
2023-01-22T09:20:13.187Z,23.90
2023-01-22T09:22:40.631Z,25.30
2023-01-22T09:25:09.097Z,24.80
2023-01-22T09:27:36.577Z,23.10
2023-01-22T09:30:04.690Z,26.30
2023-01-22T09:32:32.066Z,25.30
2023-01-22T09:34:59.452Z,24.50
2023-01-22T09:37:27.201Z,24.20
2023-01-22T09:39:55.263Z,24.10
2023-01-22T09:42:40.518Z,24.50
2023-01-22T09:45:14.136Z,27.10
2023-01-22T09:47:52.703Z,25.80
2023-01-22T09:50:25.792Z,23.90
2023-01-22T09:52:58.047Z,27.20
2023-01-22T09:55:31.848Z,25.30
2023-01-22T09:58:05.652Z,25.10
2023-01-22T10:00:46.589Z,22.40
2023-01-22T10:03:54.313Z,22.70
2023-01-22T10:06:23.811Z,23.10
2023-01-22T10:09:15.312Z,25.20
2023-01-22T10:11:46.884Z,22.60
2023-01-22T10:16:45.630Z,23.70
2023-01-22T10:19:19.261Z,23.20
2023-01-22T10:22:05.721Z,26.80
2023-01-22T10:24:33.144Z,25.40
2023-01-22T10:27:12.851Z,26.00
2023-01-22T10:29:40.625Z,22.90
2023-01-22T10:32:28.718Z,20.90
2023-01-22T10:35:20.960Z,21.90
2023-01-22T10:37:52.737Z,25.60
2023-01-22T10:40:34.507Z,21.50
2023-01-22T10:43:17.553Z,24.80
2023-01-22T10:45:53.786Z,22.30
2023-01-22T10:48:22.350Z,26.30
2023-01-22T10:51:15.144Z,19.50
2023-01-22T10:53:53.876Z,21.40
2023-01-22T10:56:40.637Z,22.60
2023-01-22T10:59:23.775Z,21.10
2023-01-22T11:02:00.714Z,22.30
2023-01-22T11:04:33.517Z,23.10
2023-01-22T11:07:10.928Z,22.30
2023-01-22T11:10:15.960Z,22.10
2023-01-22T11:12:59.588Z,20.60
2023-01-22T11:15:44.001Z,20.60
2023-01-22T11:18:22.386Z,27.70
2023-01-22T11:20:55.359Z,18.00
2023-01-22T11:23:52.426Z,22.80
2023-01-22T11:26:29.553Z,18.30
2023-01-22T11:29:06.907Z,18.50
2023-01-22T11:32:01.845Z,16.80
2023-01-22T11:34:36.050Z,20.30
2023-01-22T11:37:56.496Z,19.60
2023-01-22T11:40:34.720Z,19.80
2023-01-22T11:43:32.982Z,19.00
2023-01-22T11:46:25.009Z,15.70
2023-01-22T11:49:30.025Z,17.50
2023-01-22T11:52:44.020Z,19.20
2023-01-22T11:55:49.572Z,20.00
2023-01-22T11:59:00.567Z,18.80
2023-01-22T12:01:52.590Z,16.80
2023-01-22T12:04:45.755Z,16.80
2023-01-22T12:07:49.558Z,17.20
2023-01-22T12:10:29.022Z,19.10
2023-01-22T12:13:20.421Z,17.80
2023-01-22T12:16:10.216Z,18.40
2023-01-22T12:19:08.588Z,19.90
2023-01-22T12:22:23.099Z,17.90
2023-01-22T12:24:56.565Z,17.80
2023-01-22T12:27:35.956Z,18.50
2023-01-22T12:30:27.581Z,18.70
2023-01-22T12:33:01.066Z,17.50
2023-01-22T12:35:31.688Z,18.40
2023-01-22T12:38:15.493Z,16.80
2023-01-22T12:41:20.241Z,19.80
2023-01-22T12:43:56.903Z,16.60
2023-01-22T12:47:06.720Z,19.50
2023-01-22T12:49:46.718Z,17.40
2023-01-22T12:52:37.590Z,18.60
2023-01-22T12:55:44.334Z,19.50
2023-01-22T12:58:23.931Z,15.70
2023-01-22T13:01:13.923Z,17.10
2023-01-22T13:03:42.223Z,19.50
2023-01-22T13:06:30.998Z,19.10
2023-01-22T13:08:58.957Z,17.00
2023-01-22T13:11:32.441Z,18.40
2023-01-22T13:14:18.488Z,16.10
2023-01-22T13:17:03.673Z,15.90
2023-01-22T13:19:42.382Z,18.10
2023-01-22T13:22:16.308Z,14.20
2023-01-22T13:24:56.785Z,15.50
2023-01-22T13:27:33.426Z,16.20
2023-01-22T13:30:13.509Z,14.10
2023-01-22T13:32:41.114Z,16.00
2023-01-22T13:35:13.596Z,16.50
2023-01-22T13:37:44.237Z,13.10
2023-01-22T13:40:27.907Z,12.80
2023-01-22T13:42:56.759Z,13.40
2023-01-22T13:45:28.659Z,13.00
2023-01-22T13:47:59.819Z,14.90
2023-01-22T13:50:30.876Z,14.00
2023-01-22T13:53:02.577Z,14.80
2023-01-22T13:55:30.676Z,15.00
2023-01-22T13:58:01.715Z,12.30
2023-01-22T14:00:35.784Z,12.70
2023-01-22T14:03:20.656Z,12.20
2023-01-22T14:05:50.201Z,11.70
2023-01-22T14:08:17.709Z,12.80
2023-01-22T14:10:45.173Z,14.30
2023-01-22T14:13:13.985Z,11.70
2023-01-22T14:15:42.462Z,12.80
2023-01-22T14:18:17.578Z,10.70
2023-01-22T14:20:47.523Z,13.90
2023-01-22T14:23:15.762Z,10.80
2023-01-22T14:25:47.922Z,14.00
2023-01-22T14:28:16.831Z,12.90
2023-01-22T14:30:45.534Z,12.50
2023-01-22T14:33:19.782Z,13.00
2023-01-22T14:35:47.608Z,12.10
2023-01-22T14:38:15.376Z,13.40
2023-01-22T14:40:43.227Z,11.20
2023-01-22T14:43:11.091Z,14.20
2023-01-22T14:45:44.459Z,13.00
2023-01-22T14:48:17.177Z,11.50
2023-01-22T14:50:44.672Z,16.90
2023-01-22T14:53:13.434Z,14.00
2023-01-22T14:55:42.573Z,13.40
2023-01-22T14:58:10.799Z,10.50
2023-01-22T15:00:39.277Z,12.30
2023-01-22T15:03:06.771Z,12.70
2023-01-22T15:05:35.755Z,13.60
2023-01-22T15:08:03.688Z,13.00
2023-01-22T15:10:31.699Z,11.10
2023-01-22T15:12:59.125Z,11.10
2023-01-22T15:15:28.665Z,11.00
2023-01-22T15:17:57.741Z,11.90
2023-01-22T15:20:26.124Z,12.20
2023-01-22T15:22:53.640Z,12.30
2023-01-22T15:25:21.061Z,10.10
2023-01-22T15:27:48.492Z,12.30
2023-01-22T15:30:16.293Z,10.80
2023-01-22T15:32:43.841Z,10.80
2023-01-22T15:35:11.334Z,12.30
2023-01-22T15:37:38.765Z,12.10
2023-01-22T15:40:07.612Z,12.60
2023-01-22T15:42:35.746Z,12.90
2023-01-22T15:45:05.473Z,13.90
2023-01-22T15:47:33.145Z,12.60
2023-01-22T15:50:00.536Z,12.90
2023-01-22T15:52:27.959Z,11.30
2023-01-22T15:54:55.745Z,13.40
2023-01-22T15:57:23.193Z,11.50
2023-01-22T15:59:51.571Z,14.40
2023-01-22T16:02:19.210Z,14.10
2023-01-22T16:04:46.667Z,13.90
2023-01-22T16:07:14.057Z,14.40
2023-01-22T16:09:41.470Z,10.70
2023-01-22T16:12:09.244Z,13.10
2023-01-22T16:14:36.660Z,14.20
2023-01-22T16:17:04.100Z,15.00
2023-01-22T16:19:31.494Z,14.50
2023-01-22T16:21:58.871Z,16.60
2023-01-22T16:24:26.302Z,14.70
2023-01-22T16:26:53.677Z,13.40
2023-01-22T16:29:21.101Z,15.10
2023-01-22T16:31:48.600Z,14.10
2023-01-22T16:34:20.725Z,15.80
2023-01-22T16:36:49.239Z,13.00
2023-01-22T16:39:21.390Z,14.70
2023-01-22T16:41:51.195Z,16.90
2023-01-22T16:44:27.086Z,15.10
2023-01-22T16:46:57.667Z,14.50
2023-01-22T16:49:29.303Z,14.70
2023-01-22T16:54:37.124Z,15.50
2023-01-22T16:57:07.784Z,15.10
2023-01-22T16:59:37.018Z,15.50
2023-01-22T17:02:11.822Z,17.60
2023-01-22T17:04:39.287Z,17.10
2023-01-22T17:07:06.812Z,13.50
2023-01-22T17:09:36.239Z,15.50
2023-01-22T17:12:05.857Z,16.10
2023-01-22T17:14:38.129Z,17.40
2023-01-22T17:17:09.078Z,15.70
2023-01-22T17:19:36.886Z,18.10
2023-01-22T17:22:04.826Z,15.20
2023-01-22T17:24:32.253Z,16.70
2023-01-22T17:27:02.388Z,15.00
2023-01-22T17:29:34.999Z,19.50
2023-01-22T17:32:03.984Z,15.80
2023-01-22T17:34:31.490Z,17.60
2023-01-22T17:36:58.941Z,18.40
2023-01-22T17:39:27.207Z,17.00
2023-01-22T17:41:54.575Z,16.30
2023-01-22T17:44:22.030Z,21.20
2023-01-22T17:46:51.111Z,18.60
2023-01-22T17:49:18.539Z,17.10
2023-01-22T17:51:46.082Z,18.20
2023-01-22T17:54:13.490Z,19.10
2023-01-22T17:56:43.151Z,18.10
2023-01-22T17:59:11.166Z,17.80
2023-01-22T18:01:39.414Z,19.20
2023-01-22T18:04:10.196Z,19.30
2023-01-22T18:06:39.597Z,21.20
2023-01-22T18:09:09.032Z,17.10
2023-01-22T18:11:37.993Z,21.30
2023-01-22T18:14:08.889Z,18.80
2023-01-22T18:16:39.263Z,18.70
2023-01-22T18:19:07.463Z,15.90
2023-01-22T18:21:37.181Z,21.20
2023-01-22T18:24:07.416Z,18.10
2023-01-22T18:26:35.996Z,19.00
2023-01-22T18:29:04.786Z,18.30
2023-01-22T18:31:32.572Z,20.90
2023-01-22T18:34:03.906Z,17.70
2023-01-22T18:36:38.126Z,19.50
2023-01-22T18:39:14.962Z,20.60
2023-01-22T18:41:45.068Z,21.50
2023-01-22T18:44:14.811Z,18.50
2023-01-22T18:46:47.350Z,19.70
2023-01-22T18:49:18.862Z,19.50
2023-01-22T18:54:14.199Z,17.50
2023-01-22T18:56:42.206Z,22.10
2023-01-22T18:59:11.781Z,23.90
2023-01-22T19:01:40.888Z,25.50
2023-01-22T19:04:10.155Z,24.00
2023-01-22T19:06:39.125Z,22.70
2023-01-22T19:09:14.398Z,23.70
2023-01-22T19:11:47.085Z,24.00
2023-01-22T19:14:18.052Z,24.60
2023-01-22T19:16:48.512Z,21.00
2023-01-22T19:19:17.090Z,22.00
2023-01-22T19:21:48.898Z,24.00
2023-01-22T19:24:24.252Z,23.40
2023-01-22T19:26:52.392Z,20.30
2023-01-22T19:29:19.744Z,26.90
2023-01-22T19:31:52.085Z,23.80
2023-01-22T19:34:26.085Z,21.10
2023-01-22T19:37:01.831Z,24.70
2023-01-22T19:39:29.558Z,24.10
2023-01-22T19:41:58.202Z,28.10
2023-01-22T19:44:25.568Z,28.60
2023-01-22T19:46:53.079Z,24.70
2023-01-22T19:49:21.135Z,29.70
2023-01-22T19:51:48.748Z,25.50
2023-01-22T19:54:16.371Z,24.20
2023-01-22T19:56:45.533Z,26.50
2023-01-22T19:59:17.984Z,29.00
2023-01-22T20:01:47.392Z,24.70
2023-01-22T20:04:26.100Z,25.00
2023-01-22T20:07:07.767Z,25.30
2023-01-22T20:09:36.965Z,26.30
2023-01-22T20:12:06.112Z,23.90
2023-01-22T20:14:38.975Z,24.80
2023-01-22T20:17:06.482Z,24.90
2023-01-22T20:19:33.921Z,24.70
2023-01-22T20:22:04.506Z,26.00
2023-01-22T20:24:31.937Z,26.10
2023-01-22T20:26:59.402Z,23.90
2023-01-22T20:29:27.316Z,24.80
2023-01-22T20:31:55.867Z,26.00
2023-01-22T20:34:23.325Z,27.20
2023-01-22T20:36:50.823Z,28.20
2023-01-22T20:39:19.770Z,24.30
2023-01-22T20:41:47.652Z,23.60
2023-01-22T20:44:15.877Z,26.00
2023-01-22T20:46:44.564Z,25.70
2023-01-22T20:49:12.811Z,27.00
2023-01-22T20:51:40.491Z,24.90
2023-01-22T20:54:08.574Z,23.00
2023-01-22T20:56:36.206Z,22.70
2023-01-22T20:59:07.692Z,26.90
2023-01-22T21:04:03.720Z,27.20
2023-01-22T21:06:35.329Z,26.30
2023-01-22T21:09:05.674Z,24.60
2023-01-22T21:11:35.745Z,26.00
2023-01-22T21:14:05.206Z,24.90
2023-01-22T21:16:36.673Z,27.50
2023-01-22T21:21:49.721Z,23.40
2023-01-22T21:24:17.477Z,24.10
2023-01-22T21:26:45.254Z,29.40
2023-01-22T21:29:20.147Z,25.40
2023-01-22T21:31:50.408Z,26.10
2023-01-22T21:34:21.682Z,26.70
2023-01-22T21:36:53.671Z,29.20
2023-01-22T21:39:25.378Z,26.70
2023-01-22T21:42:12.909Z,23.80
2023-01-22T21:44:59.390Z,28.20
2023-01-22T21:47:27.514Z,28.10
2023-01-22T21:49:55.756Z,25.40
2023-01-22T21:52:23.276Z,25.40
2023-01-22T21:54:50.778Z,22.30
2023-01-22T21:57:18.448Z,25.40
2023-01-22T21:59:46.689Z,26.40
2023-01-22T22:02:17.486Z,28.90
2023-01-22T22:04:45.519Z,25.00
2023-01-22T22:07:14.022Z,25.70
2023-01-22T22:09:41.591Z,28.40
2023-01-22T22:12:10.489Z,30.60
2023-01-22T22:14:38.152Z,25.50
2023-01-22T22:17:05.542Z,27.30
2023-01-22T22:19:32.968Z,27.20
2023-01-22T22:22:00.699Z,26.30
2023-01-22T22:24:28.219Z,27.90
2023-01-22T22:26:55.710Z,27.00
2023-01-22T22:29:23.115Z,26.50
2023-01-22T22:31:50.608Z,25.40
2023-01-22T22:34:18.066Z,27.60
2023-01-22T22:36:45.433Z,28.70
2023-01-22T22:39:12.808Z,28.70
2023-01-22T22:41:40.277Z,27.70
2023-01-22T22:44:10.255Z,28.40
2023-01-22T22:46:39.411Z,26.40
2023-01-22T22:49:07.640Z,27.10
2023-01-22T22:51:38.680Z,28.10
2023-01-22T22:54:12.579Z,28.00
2023-01-22T22:56:40.030Z,27.90
2023-01-22T22:59:07.457Z,28.50
2023-01-22T23:01:37.739Z,27.00
2023-01-22T23:04:06.689Z,27.80
2023-01-22T23:06:36.628Z,29.20
2023-01-22T23:09:06.630Z,31.00
2023-01-22T23:11:35.096Z,33.20
2023-01-22T23:14:04.014Z,31.00
2023-01-22T23:16:39.872Z,28.10
2023-01-22T23:19:13.603Z,29.40
2023-01-22T23:21:41.755Z,29.10
2023-01-22T23:24:12.138Z,30.90
2023-01-22T23:26:42.548Z,29.50
2023-01-22T23:29:12.986Z,29.30
2023-01-22T23:31:40.767Z,30.70
2023-01-22T23:34:16.933Z,32.50
2023-01-22T23:36:46.690Z,31.20
2023-01-22T23:39:17.602Z,34.90
2023-01-22T23:41:45.910Z,33.30
2023-01-22T23:44:13.329Z,33.30
2023-01-22T23:46:41.151Z,32.90
2023-01-22T23:49:09.975Z,31.50
2023-01-22T23:51:41.209Z,29.60
2023-01-22T23:54:09.071Z,29.30
2023-01-22T23:56:36.701Z,34.60
2023-01-22T23:59:04.112Z,34.80
